sensor_id;sensor_type;location;lat;lon;timestamp;pressure;altitude;pressure_sealevel;temperature;humidity
3844;BME280;1937;51.444;6.484;2022-10-31T00:01:26;71646.16;;;16.60;93.34
3844;BME280;1937;51.444;6.484;2022-10-31T00:03:55;71548.31;;;16.55;93.76
3844;BME280;1937;51.444;6.484;2022-10-31T00:06:24;71613.50;;;16.53;93.97
3844;BME280;1937;51.444;6.484;2022-10-31T00:08:55;71645.03;;;16.57;93.65
3844;BME280;1937;51.444;6.484;2022-10-31T00:11:29;71691.06;;;16.50;93.97
3844;BME280;1937;51.444;6.484;2022-10-31T00:13:58;71714.72;;;16.37;94.22
3844;BME280;1937;51.444;6.484;2022-10-31T00:16:28;71681.91;;;16.51;94.01
3844;BME280;1937;51.444;6.484;2022-10-31T00:18:59;71574.59;;;16.42;94.33
3844;BME280;1937;51.444;6.484;2022-10-31T00:21:28;71696.00;;;16.26;95.20
3844;BME280;1937;51.444;6.484;2022-10-31T00:23:58;71823.66;;;16.33;95.13
3844;BME280;1937;51.444;6.484;2022-10-31T00:26:29;71674.69;;;16.15;95.02
3844;BME280;1937;51.444;6.484;2022-10-31T00:28:59;71574.19;;;16.12;95.64
3844;BME280;1937;51.444;6.484;2022-10-31T00:31:29;71750.63;;;16.26;95.18
3844;BME280;1937;51.444;6.484;2022-10-31T00:33:59;71736.41;;;16.25;95.36
3844;BME280;1937;51.444;6.484;2022-10-31T00:36:30;71730.59;;;16.25;95.60
3844;BME280;1937;51.444;6.484;2022-10-31T00:38:59;71623.91;;;16.16;95.53
3844;BME280;1937;51.444;6.484;2022-10-31T00:41:30;71875.41;;;16.18;95.13
3844;BME280;1937;51.444;6.484;2022-10-31T00:44:00;71727.69;;;16.01;96.16
3844;BME280;1937;51.444;6.484;2022-10-31T00:46:29;71884.84;;;15.93;96.93
3844;BME280;1937;51.444;6.484;2022-10-31T00:48:57;71791.50;;;16.09;96.57
3844;BME280;1937;51.444;6.484;2022-10-31T00:51:25;71772.50;;;16.02;96.37
3844;BME280;1937;51.444;6.484;2022-10-31T00:53:54;71809.31;;;15.76;97.40
3844;BME280;1937;51.444;6.484;2022-10-31T00:56:22;71829.56;;;15.35;98.35
3844;BME280;1937;51.444;6.484;2022-10-31T00:58:52;71752.25;;;15.36;98.90
3844;BME280;1937;51.444;6.484;2022-10-31T01:01:20;71784.75;;;15.15;98.68
3844;BME280;1937;51.444;6.484;2022-10-31T01:03:49;71776.22;;;14.87;100.00
3844;BME280;1937;51.444;6.484;2022-10-31T01:06:17;71891.03;;;14.88;100.00
3844;BME280;1937;51.444;6.484;2022-10-31T01:08:46;72125.59;;;14.93;100.00
3844;BME280;1937;51.444;6.484;2022-10-31T01:11:17;72202.56;;;14.86;100.00
3844;BME280;1937;51.444;6.484;2022-10-31T01:13:46;72193.56;;;14.95;100.00
3844;BME280;1937;51.444;6.484;2022-10-31T01:16:18;72165.66;;;14.51;100.00
3844;BME280;1937;51.444;6.484;2022-10-31T01:18:46;72341.25;;;14.65;100.00
3844;BME280;1937;51.444;6.484;2022-10-31T01:21:17;72396.06;;;14.59;100.00
3844;BME280;1937;51.444;6.484;2022-10-31T01:23:47;72384.38;;;14.48;100.00
3844;BME280;1937;51.444;6.484;2022-10-31T01:26:17;72369.94;;;14.51;100.00
3844;BME280;1937;51.444;6.484;2022-10-31T01:28:47;72407.25;;;14.56;100.00
3844;BME280;1937;51.444;6.484;2022-10-31T01:31:20;72472.09;;;14.68;100.00
3844;BME280;1937;51.444;6.484;2022-10-31T01:33:50;72366.94;;;14.46;100.00
3844;BME280;1937;51.444;6.484;2022-10-31T01:36:20;72404.72;;;14.30;100.00
3844;BME280;1937;51.444;6.484;2022-10-31T01:38:49;72359.50;;;14.27;100.00
3844;BME280;1937;51.444;6.484;2022-10-31T01:41:19;72208.78;;;14.33;100.00
3844;BME280;1937;51.444;6.484;2022-10-31T01:43:51;72386.78;;;14.39;100.00
3844;BME280;1937;51.444;6.484;2022-10-31T01:46:24;72306.06;;;14.32;100.00
3844;BME280;1937;51.444;6.484;2022-10-31T01:48:55;72337.72;;;14.35;100.00
3844;BME280;1937;51.444;6.484;2022-10-31T01:51:27;72334.19;;;14.28;100.00
3844;BME280;1937;51.444;6.484;2022-10-31T01:53:59;72402.25;;;14.16;100.00
3844;BME280;1937;51.444;6.484;2022-10-31T01:56:29;72572.41;;;14.09;100.00
3844;BME280;1937;51.444;6.484;2022-10-31T01:58:59;72495.06;;;14.01;100.00
3844;BME280;1937;51.444;6.484;2022-10-31T02:01:31;72594.09;;;14.16;100.00
3844;BME280;1937;51.444;6.484;2022-10-31T02:03:59;72440.75;;;13.99;100.00
3844;BME280;1937;51.444;6.484;2022-10-31T02:06:35;72398.88;;;13.81;100.00
3844;BME280;1937;51.444;6.484;2022-10-31T02:09:06;72546.34;;;13.73;100.00
3844;BME280;1937;51.444;6.484;2022-10-31T02:11:37;72609.28;;;13.84;100.00
3844;BME280;1937;51.444;6.484;2022-10-31T02:14:06;72615.72;;;13.85;100.00
3844;BME280;1937;51.444;6.484;2022-10-31T02:16:36;72654.16;;;13.80;100.00
3844;BME280;1937;51.444;6.484;2022-10-31T02:19:07;72502.94;;;13.61;100.00
3844;BME280;1937;51.444;6.484;2022-10-31T02:21:42;72570.88;;;13.61;100.00
3844;BME280;1937;51.444;6.484;2022-10-31T02:24:40;72494.13;;;13.68;100.00
3844;BME280;1937;51.444;6.484;2022-10-31T02:27:27;72503.31;;;13.52;100.00
3844;BME280;1937;51.444;6.484;2022-10-31T02:30:07;72576.47;;;13.53;100.00
3844;BME280;1937;51.444;6.484;2022-10-31T02:33:10;72617.91;;;13.53;100.00
3844;BME280;1937;51.444;6.484;2022-10-31T02:35:49;72810.81;;;13.39;100.00
3844;BME280;1937;51.444;6.484;2022-10-31T02:38:37;72732.34;;;13.28;100.00
3844;BME280;1937;51.444;6.484;2022-10-31T02:41:14;72770.88;;;13.49;100.00
3844;BME280;1937;51.444;6.484;2022-10-31T02:43:54;72789.63;;;13.49;100.00
3844;BME280;1937;51.444;6.484;2022-10-31T02:46:30;72821.81;;;13.55;100.00
3844;BME280;1937;51.444;6.484;2022-10-31T02:49:03;72708.06;;;13.63;100.00
3844;BME280;1937;51.444;6.484;2022-10-31T02:51:34;72593.25;;;13.54;100.00
3844;BME280;1937;51.444;6.484;2022-10-31T02:54:03;72923.47;;;13.70;100.00
3844;BME280;1937;51.444;6.484;2022-10-31T02:56:32;72649.38;;;13.72;100.00
3844;BME280;1937;51.444;6.484;2022-10-31T02:59:03;72712.69;;;13.75;100.00
3844;BME280;1937;51.444;6.484;2022-10-31T03:01:51;72655.66;;;13.63;100.00
3844;BME280;1937;51.444;6.484;2022-10-31T03:04:43;72685.88;;;13.53;100.00
3844;BME280;1937;51.444;6.484;2022-10-31T03:07:20;72820.91;;;13.45;100.00
3844;BME280;1937;51.444;6.484;2022-10-31T03:09:54;72763.75;;;13.49;100.00
3844;BME280;1937;51.444;6.484;2022-10-31T03:12:29;72760.81;;;13.43;100.00
3844;BME280;1937;51.444;6.484;2022-10-31T03:15:03;73014.97;;;13.49;100.00
3844;BME280;1937;51.444;6.484;2022-10-31T03:17:40;72584.41;;;13.36;100.00
3844;BME280;1937;51.444;6.484;2022-10-31T03:20:12;72852.88;;;13.40;100.00
3844;BME280;1937;51.444;6.484;2022-10-31T03:22:43;72802.59;;;13.35;100.00
3844;BME280;1937;51.444;6.484;2022-10-31T03:25:13;72959.38;;;13.32;100.00
3844;BME280;1937;51.444;6.484;2022-10-31T03:27:44;72845.44;;;13.32;100.00
3844;BME280;1937;51.444;6.484;2022-10-31T03:30:13;72772.13;;;13.06;100.00
3844;BME280;1937;51.444;6.484;2022-10-31T03:32:44;72972.47;;;13.13;100.00
3844;BME280;1937;51.444;6.484;2022-10-31T03:35:17;72908.69;;;13.05;100.00
3844;BME280;1937;51.444;6.484;2022-10-31T03:37:49;72918.22;;;13.26;100.00
3844;BME280;1937;51.444;6.484;2022-10-31T03:40:21;72887.41;;;13.20;100.00
3844;BME280;1937;51.444;6.484;2022-10-31T03:42:55;72813.81;;;13.00;100.00
3844;BME280;1937;51.444;6.484;2022-10-31T03:45:27;72696.28;;;12.80;100.00
3844;BME280;1937;51.444;6.484;2022-10-31T03:47:58;72694.31;;;12.81;100.00
3844;BME280;1937;51.444;6.484;2022-10-31T03:50:32;72701.56;;;12.78;100.00
3844;BME280;1937;51.444;6.484;2022-10-31T03:53:08;72656.88;;;12.65;100.00
3844;BME280;1937;51.444;6.484;2022-10-31T03:55:41;72660.34;;;12.59;100.00
3844;BME280;1937;51.444;6.484;2022-10-31T03:58:13;72637.78;;;12.58;100.00
3844;BME280;1937;51.444;6.484;2022-10-31T04:00:47;72782.09;;;12.70;100.00
3844;BME280;1937;51.444;6.484;2022-10-31T04:03:22;72762.47;;;12.75;100.00
3844;BME280;1937;51.444;6.484;2022-10-31T04:05:54;72760.59;;;12.73;100.00
3844;BME280;1937;51.444;6.484;2022-10-31T04:08:26;72681.84;;;12.56;100.00
3844;BME280;1937;51.444;6.484;2022-10-31T04:10:57;72802.09;;;12.71;100.00
3844;BME280;1937;51.444;6.484;2022-10-31T04:13:29;72844.44;;;12.64;100.00
3844;BME280;1937;51.444;6.484;2022-10-31T04:15:59;72706.00;;;12.36;100.00
3844;BME280;1937;51.444;6.484;2022-10-31T04:18:28;72903.59;;;12.55;100.00
3844;BME280;1937;51.444;6.484;2022-10-31T04:21:06;73009.97;;;12.47;100.00
3844;BME280;1937;51.444;6.484;2022-10-31T04:23:36;72966.63;;;12.64;100.00
3844;BME280;1937;51.444;6.484;2022-10-31T04:26:05;72974.16;;;12.70;100.00
3844;BME280;1937;51.444;6.484;2022-10-31T04:28:34;73015.31;;;12.77;100.00
3844;BME280;1937;51.444;6.484;2022-10-31T04:31:02;73061.00;;;12.99;100.00
3844;BME280;1937;51.444;6.484;2022-10-31T04:33:31;72785.69;;;12.92;100.00
3844;BME280;1937;51.444;6.484;2022-10-31T04:35:59;73047.91;;;13.03;100.00
3844;BME280;1937;51.444;6.484;2022-10-31T04:38:29;72766.25;;;12.93;100.00
3844;BME280;1937;51.444;6.484;2022-10-31T04:40:58;72888.75;;;13.02;100.00
3844;BME280;1937;51.444;6.484;2022-10-31T04:43:28;72867.72;;;12.95;100.00
3844;BME280;1937;51.444;6.484;2022-10-31T04:45:56;72963.31;;;12.83;100.00
3844;BME280;1937;51.444;6.484;2022-10-31T04:48:24;73178.88;;;12.96;100.00
3844;BME280;1937;51.444;6.484;2022-10-31T04:50:57;73161.47;;;13.11;100.00
3844;BME280;1937;51.444;6.484;2022-10-31T04:53:26;73002.63;;;13.02;100.00
3844;BME280;1937;51.444;6.484;2022-10-31T04:55:57;72794.97;;;12.87;100.00
3844;BME280;1937;51.444;6.484;2022-10-31T04:58:26;72837.63;;;12.88;100.00
3844;BME280;1937;51.444;6.484;2022-10-31T05:00:57;72768.34;;;12.59;100.00
3844;BME280;1937;51.444;6.484;2022-10-31T05:03:26;72710.50;;;12.20;100.00
3844;BME280;1937;51.444;6.484;2022-10-31T05:05:54;72441.28;;;11.88;100.00
3844;BME280;1937;51.444;6.484;2022-10-31T05:08:23;72598.91;;;11.86;100.00
3844;BME280;1937;51.444;6.484;2022-10-31T05:10:51;72866.94;;;11.86;100.00
3844;BME280;1937;51.444;6.484;2022-10-31T05:13:21;72894.34;;;11.96;100.00
3844;BME280;1937;51.444;6.484;2022-10-31T05:15:51;72993.69;;;11.99;100.00
3844;BME280;1937;51.444;6.484;2022-10-31T05:18:19;72770.91;;;11.81;100.00
3844;BME280;1937;51.444;6.484;2022-10-31T05:20:48;72921.75;;;11.88;100.00
3844;BME280;1937;51.444;6.484;2022-10-31T05:23:16;72862.78;;;11.76;100.00
3844;BME280;1937;51.444;6.484;2022-10-31T05:25:44;72983.34;;;11.82;100.00
3844;BME280;1937;51.444;6.484;2022-10-31T05:28:13;73183.16;;;12.12;100.00
3844;BME280;1937;51.444;6.484;2022-10-31T05:30:43;73056.53;;;12.12;100.00
3844;BME280;1937;51.444;6.484;2022-10-31T05:33:11;73019.53;;;11.99;100.00
3844;BME280;1937;51.444;6.484;2022-10-31T05:35:40;73070.78;;;12.11;100.00
3844;BME280;1937;51.444;6.484;2022-10-31T05:38:08;73005.69;;;12.06;100.00
3844;BME280;1937;51.444;6.484;2022-10-31T05:40:36;72942.72;;;12.14;100.00
3844;BME280;1937;51.444;6.484;2022-10-31T05:43:05;72920.97;;;12.09;100.00
3844;BME280;1937;51.444;6.484;2022-10-31T05:45:33;72705.91;;;11.92;100.00
3844;BME280;1937;51.444;6.484;2022-10-31T05:48:03;72778.94;;;11.90;100.00
3844;BME280;1937;51.444;6.484;2022-10-31T05:50:33;72821.94;;;11.81;100.00
3844;BME280;1937;51.444;6.484;2022-10-31T05:53:04;72832.50;;;11.75;100.00
3844;BME280;1937;51.444;6.484;2022-10-31T05:55:34;72813.31;;;11.70;100.00
3844;BME280;1937;51.444;6.484;2022-10-31T05:58:03;72952.44;;;11.61;100.00
3844;BME280;1937;51.444;6.484;2022-10-31T06:00:31;72861.75;;;11.69;100.00
3844;BME280;1937;51.444;6.484;2022-10-31T06:03:05;73087.16;;;11.86;100.00
3844;BME280;1937;51.444;6.484;2022-10-31T06:05:33;72963.88;;;11.66;100.00
3844;BME280;1937;51.444;6.484;2022-10-31T06:08:03;73081.63;;;11.59;100.00
3844;BME280;1937;51.444;6.484;2022-10-31T06:10:31;73121.56;;;11.81;100.00
3844;BME280;1937;51.444;6.484;2022-10-31T06:12:59;73229.72;;;11.91;100.00
3844;BME280;1937;51.444;6.484;2022-10-31T06:15:28;73118.56;;;11.93;100.00
3844;BME280;1937;51.444;6.484;2022-10-31T06:18:05;73077.81;;;11.77;100.00
3844;BME280;1937;51.444;6.484;2022-10-31T06:20:34;73185.38;;;11.84;100.00
3844;BME280;1937;51.444;6.484;2022-10-31T06:23:03;73273.72;;;11.89;100.00
3844;BME280;1937;51.444;6.484;2022-10-31T06:25:34;73224.63;;;12.08;100.00
3844;BME280;1937;51.444;6.484;2022-10-31T06:28:02;73112.56;;;11.99;100.00
3844;BME280;1937;51.444;6.484;2022-10-31T06:30:31;73015.44;;;11.87;100.00
3844;BME280;1937;51.444;6.484;2022-10-31T06:33:05;73221.28;;;11.93;100.00
3844;BME280;1937;51.444;6.484;2022-10-31T06:35:34;73076.75;;;11.88;100.00
3844;BME280;1937;51.444;6.484;2022-10-31T06:38:02;73145.38;;;11.83;100.00
3844;BME280;1937;51.444;6.484;2022-10-31T06:40:30;73147.16;;;11.68;100.00
3844;BME280;1937;51.444;6.484;2022-10-31T06:43:00;73019.50;;;11.63;100.00
3844;BME280;1937;51.444;6.484;2022-10-31T06:45:29;73068.91;;;11.72;100.00
3844;BME280;1937;51.444;6.484;2022-10-31T06:47:58;72823.94;;;11.62;100.00
3844;BME280;1937;51.444;6.484;2022-10-31T06:50:28;72926.75;;;11.57;100.00
3844;BME280;1937;51.444;6.484;2022-10-31T06:52:58;73127.38;;;11.81;100.00
3844;BME280;1937;51.444;6.484;2022-10-31T06:55:27;73277.59;;;12.09;100.00
3844;BME280;1937;51.444;6.484;2022-10-31T06:57:58;73165.63;;;12.14;100.00
3844;BME280;1937;51.444;6.484;2022-10-31T07:00:29;72947.88;;;11.80;100.00
3844;BME280;1937;51.444;6.484;2022-10-31T07:02:59;73317.06;;;11.86;100.00
3844;BME280;1937;51.444;6.484;2022-10-31T07:05:40;73516.47;;;11.93;100.00
3844;BME280;1937;51.444;6.484;2022-10-31T07:08:12;73418.97;;;11.92;100.00
3844;BME280;1937;51.444;6.484;2022-10-31T07:10:42;73398.31;;;11.92;100.00
3844;BME280;1937;51.444;6.484;2022-10-31T07:13:14;73384.19;;;11.88;100.00
3844;BME280;1937;51.444;6.484;2022-10-31T07:15:43;73474.22;;;11.80;100.00
3844;BME280;1937;51.444;6.484;2022-10-31T07:18:13;73661.09;;;12.20;100.00
3844;BME280;1937;51.444;6.484;2022-10-31T07:20:43;73650.34;;;12.36;100.00
3844;BME280;1937;51.444;6.484;2022-10-31T07:23:12;73420.59;;;12.24;100.00
3844;BME280;1937;51.444;6.484;2022-10-31T07:25:41;73459.53;;;12.18;100.00
3844;BME280;1937;51.444;6.484;2022-10-31T07:28:10;73518.22;;;12.21;100.00
3844;BME280;1937;51.444;6.484;2022-10-31T07:30:40;73357.91;;;12.03;100.00
3844;BME280;1937;51.444;6.484;2022-10-31T07:33:09;73443.72;;;12.07;100.00
3844;BME280;1937;51.444;6.484;2022-10-31T07:35:37;73637.97;;;12.16;100.00
3844;BME280;1937;51.444;6.484;2022-10-31T07:38:11;73495.47;;;12.26;100.00
3844;BME280;1937;51.444;6.484;2022-10-31T07:40:41;73623.91;;;12.34;100.00
3844;BME280;1937;51.444;6.484;2022-10-31T07:43:10;73722.78;;;12.59;100.00
3844;BME280;1937;51.444;6.484;2022-10-31T07:45:39;73665.13;;;12.62;100.00
3844;BME280;1937;51.444;6.484;2022-10-31T07:48:08;73632.63;;;12.67;100.00
3844;BME280;1937;51.444;6.484;2022-10-31T07:50:36;73740.50;;;12.73;100.00
3844;BME280;1937;51.444;6.484;2022-10-31T07:53:07;73540.81;;;12.66;100.00
3844;BME280;1937;51.444;6.484;2022-10-31T07:55:38;73564.22;;;12.62;100.00
3844;BME280;1937;51.444;6.484;2022-10-31T07:58:09;73595.72;;;12.69;100.00
3844;BME280;1937;51.444;6.484;2022-10-31T08:00:40;73732.88;;;12.92;100.00
3844;BME280;1937;51.444;6.484;2022-10-31T08:03:10;73734.97;;;12.85;100.00
3844;BME280;1937;51.444;6.484;2022-10-31T08:05:39;73914.72;;;13.17;100.00
3844;BME280;1937;51.444;6.484;2022-10-31T08:08:08;73904.31;;;13.19;100.00
3844;BME280;1937;51.444;6.484;2022-10-31T08:10:39;74137.31;;;13.50;100.00
3844;BME280;1937;51.444;6.484;2022-10-31T08:13:10;73970.66;;;13.58;100.00
3844;BME280;1937;51.444;6.484;2022-10-31T08:15:39;73797.97;;;13.71;100.00
3844;BME280;1937;51.444;6.484;2022-10-31T08:18:12;73852.88;;;13.77;100.00
3844;BME280;1937;51.444;6.484;2022-10-31T08:20:42;73742.78;;;13.74;100.00
3844;BME280;1937;51.444;6.484;2022-10-31T08:23:12;73664.91;;;13.78;100.00
3844;BME280;1937;51.444;6.484;2022-10-31T08:25:42;73699.19;;;13.60;100.00
3844;BME280;1937;51.444;6.484;2022-10-31T08:28:11;73569.25;;;13.51;100.00
3844;BME280;1937;51.444;6.484;2022-10-31T08:30:40;73543.88;;;13.93;100.00
3844;BME280;1937;51.444;6.484;2022-10-31T08:33:13;73567.78;;;14.15;100.00
3844;BME280;1937;51.444;6.484;2022-10-31T08:35:43;73781.03;;;14.38;99.81
3844;BME280;1937;51.444;6.484;2022-10-31T08:38:12;73537.69;;;14.43;100.00
3844;BME280;1937;51.444;6.484;2022-10-31T08:40:43;73871.56;;;14.48;100.00
3844;BME280;1937;51.444;6.484;2022-10-31T08:43:14;74123.50;;;14.88;100.00
3844;BME280;1937;51.444;6.484;2022-10-31T08:45:43;74152.28;;;15.27;100.00
3844;BME280;1937;51.444;6.484;2022-10-31T08:48:13;73563.69;;;15.30;97.41
3844;BME280;1937;51.444;6.484;2022-10-31T08:50:43;73409.66;;;15.65;95.76
3844;BME280;1937;51.444;6.484;2022-10-31T08:53:14;73443.31;;;16.15;94.86
3844;BME280;1937;51.444;6.484;2022-10-31T08:55:46;73095.69;;;16.22;93.57
3844;BME280;1937;51.444;6.484;2022-10-31T08:58:23;72621.44;;;16.36;91.40
3844;BME280;1937;51.444;6.484;2022-10-31T09:00:55;72149.81;;;16.27;90.75
3844;BME280;1937;51.444;6.484;2022-10-31T09:03:26;71835.94;;;15.96;90.87
3844;BME280;1937;51.444;6.484;2022-10-31T09:05:57;72017.72;;;16.09;92.05
3844;BME280;1937;51.444;6.484;2022-10-31T09:08:28;72087.22;;;16.00;91.14
3844;BME280;1937;51.444;6.484;2022-10-31T09:10:59;71977.97;;;16.10;91.39
3844;BME280;1937;51.444;6.484;2022-10-31T09:13:27;71873.22;;;15.63;93.88
3844;BME280;1937;51.444;6.484;2022-10-31T09:15:57;72021.84;;;15.54;94.34
3844;BME280;1937;51.444;6.484;2022-10-31T09:18:26;72026.31;;;15.35;94.84
3844;BME280;1937;51.444;6.484;2022-10-31T09:20:56;72149.38;;;15.40;94.91
3844;BME280;1937;51.444;6.484;2022-10-31T09:23:32;72093.84;;;15.24;94.51
3844;BME280;1937;51.444;6.484;2022-10-31T09:26:03;72201.22;;;15.63;94.80
3844;BME280;1937;51.444;6.484;2022-10-31T09:28:32;72327.59;;;15.79;94.14
3844;BME280;1937;51.444;6.484;2022-10-31T09:31:00;72196.16;;;15.82;93.93
3844;BME280;1937;51.444;6.484;2022-10-31T09:33:29;71930.31;;;15.54;93.86
3844;BME280;1937;51.444;6.484;2022-10-31T09:35:59;72060.06;;;15.67;94.01
3844;BME280;1937;51.444;6.484;2022-10-31T09:38:28;72204.44;;;15.64;93.88
3844;BME280;1937;51.444;6.484;2022-10-31T09:41:03;72023.69;;;15.67;93.81
3844;BME280;1937;51.444;6.484;2022-10-31T09:43:43;71990.53;;;15.97;92.61
3844;BME280;1937;51.444;6.484;2022-10-31T09:46:20;72191.53;;;16.47;91.08
3844;BME280;1937;51.444;6.484;2022-10-31T09:49:03;72006.34;;;16.63;90.10
3844;BME280;1937;51.444;6.484;2022-10-31T09:51:39;71948.41;;;16.73;90.37
3844;BME280;1937;51.444;6.484;2022-10-31T09:54:14;72139.75;;;16.83;90.76
3844;BME280;1937;51.444;6.484;2022-10-31T09:56:44;72015.47;;;16.92;90.80
3844;BME280;1937;51.444;6.484;2022-10-31T09:59:26;72093.84;;;16.88;90.82
3844;BME280;1937;51.444;6.484;2022-10-31T10:02:00;71996.00;;;17.30;88.47
3844;BME280;1937;51.444;6.484;2022-10-31T10:04:37;72021.63;;;17.55;88.52
3844;BME280;1937;51.444;6.484;2022-10-31T10:07:12;71649.25;;;17.42;87.70
3844;BME280;1937;51.444;6.484;2022-10-31T10:09:42;71602.63;;;17.38;87.29
3844;BME280;1937;51.444;6.484;2022-10-31T10:12:16;71625.78;;;17.51;87.13
3844;BME280;1937;51.444;6.484;2022-10-31T10:14:55;71553.09;;;17.55;87.62
3844;BME280;1937;51.444;6.484;2022-10-31T10:17:32;71449.63;;;17.71;86.13
3844;BME280;1937;51.444;6.484;2022-10-31T10:20:13;71488.53;;;17.82;86.41
3844;BME280;1937;51.444;6.484;2022-10-31T10:22:51;71460.00;;;17.88;86.31
3844;BME280;1937;51.444;6.484;2022-10-31T10:25:24;71672.28;;;17.66;87.58
3844;BME280;1937;51.444;6.484;2022-10-31T10:28:07;71694.97;;;17.93;86.74
3844;BME280;1937;51.444;6.484;2022-10-31T10:30:42;71713.22;;;17.93;86.76
3844;BME280;1937;51.444;6.484;2022-10-31T10:33:14;71451.28;;;17.83;86.98
3844;BME280;1937;51.444;6.484;2022-10-31T10:35:47;71544.63;;;18.07;87.01
3844;BME280;1937;51.444;6.484;2022-10-31T10:38:22;71456.63;;;17.90;87.27
3844;BME280;1937;51.444;6.484;2022-10-31T10:40:54;71531.28;;;18.02;87.15
3844;BME280;1937;51.444;6.484;2022-10-31T10:43:26;71421.75;;;18.02;85.96
3844;BME280;1937;51.444;6.484;2022-10-31T10:46:14;71344.34;;;17.92;85.88
3844;BME280;1937;51.444;6.484;2022-10-31T10:49:06;71476.28;;;17.80;87.90
3844;BME280;1937;51.444;6.484;2022-10-31T10:51:40;71387.69;;;17.72;86.82
3844;BME280;1937;51.444;6.484;2022-10-31T10:54:41;71471.34;;;17.93;87.52
3844;BME280;1937;51.444;6.484;2022-10-31T10:57:26;71541.19;;;18.25;85.90
3844;BME280;1937;51.444;6.484;2022-10-31T10:59:56;71591.53;;;18.15;87.40
3844;BME280;1937;51.444;6.484;2022-10-31T11:02:32;71553.81;;;18.14;87.26
3844;BME280;1937;51.444;6.484;2022-10-31T11:05:03;71315.09;;;17.83;87.50
3844;BME280;1937;51.444;6.484;2022-10-31T11:07:39;71502.34;;;17.80;88.80
3844;BME280;1937;51.444;6.484;2022-10-31T11:10:14;71645.28;;;17.69;89.43
3844;BME280;1937;51.444;6.484;2022-10-31T11:12:44;71613.69;;;17.82;89.01
3844;BME280;1937;51.444;6.484;2022-10-31T11:15:22;71530.22;;;18.08;88.12
3844;BME280;1937;51.444;6.484;2022-10-31T11:17:55;71652.44;;;18.20;86.77
3844;BME280;1937;51.444;6.484;2022-10-31T11:20:35;71323.75;;;18.20;85.04
3844;BME280;1937;51.444;6.484;2022-10-31T11:23:14;71429.13;;;18.64;84.14
3844;BME280;1937;51.444;6.484;2022-10-31T11:25:50;71236.34;;;18.36;85.35
3844;BME280;1937;51.444;6.484;2022-10-31T11:28:19;71295.69;;;18.21;86.11
3844;BME280;1937;51.444;6.484;2022-10-31T11:30:50;71307.22;;;18.63;84.88
3844;BME280;1937;51.444;6.484;2022-10-31T11:33:24;71290.16;;;18.64;84.51
3844;BME280;1937;51.444;6.484;2022-10-31T11:35:55;71283.75;;;18.78;83.51
3844;BME280;1937;51.444;6.484;2022-10-31T11:38:25;71258.84;;;18.64;84.39
3844;BME280;1937;51.444;6.484;2022-10-31T11:40:56;71321.25;;;18.74;85.19
3844;BME280;1937;51.444;6.484;2022-10-31T11:43:26;71401.91;;;18.94;84.71
3844;BME280;1937;51.444;6.484;2022-10-31T11:45:54;71252.06;;;18.82;84.06
3844;BME280;1937;51.444;6.484;2022-10-31T11:48:26;71323.69;;;18.76;83.70
3844;BME280;1937;51.444;6.484;2022-10-31T11:50:57;71295.09;;;18.98;83.82
3844;BME280;1937;51.444;6.484;2022-10-31T11:53:28;71371.50;;;19.14;84.15
3844;BME280;1937;51.444;6.484;2022-10-31T11:56:10;71470.41;;;18.94;85.73
3844;BME280;1937;51.444;6.484;2022-10-31T11:58:42;71354.66;;;19.04;84.38
3844;BME280;1937;51.444;6.484;2022-10-31T12:01:24;71430.00;;;19.17;84.56
3844;BME280;1937;51.444;6.484;2022-10-31T12:03:58;71378.75;;;18.90;85.46
3844;BME280;1937;51.444;6.484;2022-10-31T12:06:34;71354.78;;;18.87;85.32
3844;BME280;1937;51.444;6.484;2022-10-31T12:09:04;71366.63;;;18.86;84.54
3844;BME280;1937;51.444;6.484;2022-10-31T12:11:46;71237.63;;;18.83;84.97
3844;BME280;1937;51.444;6.484;2022-10-31T12:14:26;71231.19;;;18.67;86.12
3844;BME280;1937;51.444;6.484;2022-10-31T12:17:00;71182.28;;;18.74;84.62
3844;BME280;1937;51.444;6.484;2022-10-31T12:19:39;71037.44;;;18.88;82.22
3844;BME280;1937;51.444;6.484;2022-10-31T12:22:14;70973.13;;;19.06;80.69
3844;BME280;1937;51.444;6.484;2022-10-31T12:24:55;70831.91;;;18.80;80.27
3844;BME280;1937;51.444;6.484;2022-10-31T12:27:44;70721.19;;;18.70;80.35
3844;BME280;1937;51.444;6.484;2022-10-31T12:30:20;70758.75;;;18.73;81.26
3844;BME280;1937;51.444;6.484;2022-10-31T12:33:11;70792.00;;;18.88;81.05
3844;BME280;1937;51.444;6.484;2022-10-31T12:35:45;70905.03;;;19.37;80.03
3844;BME280;1937;51.444;6.484;2022-10-31T12:38:38;70887.97;;;19.38;80.14
3844;BME280;1937;51.444;6.484;2022-10-31T12:41:30;70929.03;;;19.46;78.97
3844;BME280;1937;51.444;6.484;2022-10-31T12:44:17;70755.84;;;19.26;79.63
3844;BME280;1937;51.444;6.484;2022-10-31T12:47:04;70642.47;;;19.16;78.98
3844;BME280;1937;51.444;6.484;2022-10-31T12:49:52;70707.97;;;19.20;79.16
3844;BME280;1937;51.444;6.484;2022-10-31T12:52:33;70918.22;;;19.50;79.62
3844;BME280;1937;51.444;6.484;2022-10-31T12:55:22;70655.41;;;19.44;78.29
3844;BME280;1937;51.444;6.484;2022-10-31T12:57:59;70706.84;;;19.39;78.17
3844;BME280;1937;51.444;6.484;2022-10-31T13:00:31;70522.94;;;19.36;77.41
3844;BME280;1937;51.444;6.484;2022-10-31T13:03:05;70557.72;;;19.41;77.96
3844;BME280;1937;51.444;6.484;2022-10-31T13:05:43;70549.50;;;19.45;77.17
3844;BME280;1937;51.444;6.484;2022-10-31T13:08:20;70435.94;;;19.25;77.20
3844;BME280;1937;51.444;6.484;2022-10-31T13:10:55;70566.00;;;19.57;77.82
3844;BME280;1937;51.444;6.484;2022-10-31T13:13:31;70523.56;;;19.50;77.66
3844;BME280;1937;51.444;6.484;2022-10-31T13:16:03;70563.59;;;19.55;77.53
3844;BME280;1937;51.444;6.484;2022-10-31T13:18:45;70670.41;;;19.92;76.51
3844;BME280;1937;51.444;6.484;2022-10-31T13:21:21;70639.63;;;19.79;77.25
3844;BME280;1937;51.444;6.484;2022-10-31T13:23:52;70542.28;;;19.85;76.07
3844;BME280;1937;51.444;6.484;2022-10-31T13:26:30;70596.19;;;19.69;76.98
3844;BME280;1937;51.444;6.484;2022-10-31T13:29:05;70506.28;;;19.66;77.10
3844;BME280;1937;51.444;6.484;2022-10-31T13:31:41;70455.41;;;19.65;76.87
3844;BME280;1937;51.444;6.484;2022-10-31T13:34:16;70669.41;;;19.89;76.85
3844;BME280;1937;51.444;6.484;2022-10-31T13:36:53;70495.00;;;19.94;75.32
3844;BME280;1937;51.444;6.484;2022-10-31T13:39:34;70472.50;;;19.71;77.59
3844;BME280;1937;51.444;6.484;2022-10-31T13:42:14;70472.88;;;19.86;76.04
3844;BME280;1937;51.444;6.484;2022-10-31T13:44:45;70480.72;;;19.80;75.42